• Join FlightAware (Why Join?)
  • Login
  • US Flag 
04:34AM EDT


 

Airport Tracker/Info


-or-


 

Live Flight TrackerFlight Track Log ✈ N724AE ✈ 20-Apr-2013 ✈ KTLH - KDFW

Flight Track Log - Related Links

Times and Time Zones

All times are in EDT time to prevent confusion due to time zone crossing. See the N724AE flight status page for this flight to view local times or setup timezone preferences in your user account.

Time Position Orientation Groundspeed Altitude Reporting Facility
EDT Latitude Longitude Course Direction KTS MPH feet Rate Location/Type
06:46AM 30.4680 -84.6401 283° West  Level FlightAware Approximate
06:46AM 30.4131 -84.4967 286° West 225 259 5,500  Level Jacksonville Center
06:47AM 30.4883 -84.7415 283° West  Level FlightAware Approximate
06:47AM 30.4308 -84.5717 285° West 238 274 8,300  Level Jacksonville Center
06:48AM 30.5106 -84.8423 286° West  Level FlightAware Approximate
06:48AM 30.4528 -84.6492 288° West 244 281 10,500  Level Jacksonville Center
06:49AM 30.5356 -84.9423 286° West  Level FlightAware Approximate
06:49AM 30.4744 -84.7364 286° West 258 297 12,100  Level Jacksonville Center
06:50AM 30.5603 -85.0425 286° West  Level FlightAware Approximate
06:50AM 30.5003 -84.8358 287° West 291 335 13,600  Level Jacksonville Center
06:51AM 30.5844 -85.1428 286° West  Level FlightAware Approximate
06:51AM 30.5236 -84.9375 285° West 316 364 15,100  Level Jacksonville Center
06:52AM 30.5492 -85.0369 287° West 324 373 16,500 1,320 Climbing Jacksonville Center
06:53AM 30.5744 -85.1414 286° West 330 380 17,800 1,380 Climbing Jacksonville Center
06:54AM 30.5997 -85.2433 286° West 330 380 19,300 1,440 Climbing Jacksonville Center
06:55AM 30.6250 -85.3453 286° West 330 380 20,700 1,320 Climbing Jacksonville Center
06:56AM 30.6481 -85.4472 285° West 330 380 22,000 1,080 Climbing Jacksonville Center
06:57AM 30.6750 -85.5567 286° West 337 388 22,900 900 Climbing Jacksonville Center
06:58AM 30.7039 -85.6661 287° West 343 395 23,900 960 Climbing Jacksonville Center
06:59AM 30.7306 -85.7806 285° West 356 410 24,900 900 Climbing Jacksonville Center
07:00AM 30.7553 -85.8925 284° West 361 415 25,800 900 Climbing Jacksonville Center
07:01AM 30.7839 -86.0069 286° West 361 415 26,800 900 Climbing Jacksonville Center
07:02AM 30.8103 -86.1192 285° West 361 415 27,700 900 Climbing Jacksonville Center
07:03AM 30.8178 -86.2281 275° West 355 409 28,700 900 Climbing Jacksonville Center
07:04AM 30.8192 -86.3372 271° West 350 403 29,600 900 Climbing Jacksonville Center
07:05AM 30.8225 -86.4461 272° West 345 397 30,600 960 Climbing Jacksonville Center
07:06AM 30.8256 -86.5550 272° West 345 397 31,600 840 Climbing Jacksonville Center
07:07AM 30.8258 -86.6833 270° West 345 397 32,300 1,080 Climbing Jacksonville Center
07:08AM 30.8439 -86.7808 282° West 350 403 33,800 1,260 Climbing Jacksonville Center
07:09AM 30.8592 -86.8925 279° West 350 403 34,900 1,080 Climbing Jacksonville Center
07:10AM 30.8767 -87.0022 281° West 350 403 36,000 540 Climbing Jacksonville Center
07:11AM 30.8919 -87.1094 279° West 350 403 36,000  Level Jacksonville Center
07:13AM 30.9225 -87.3381 279° West 325 374 36,000  Level Houston Center
07:14AM 30.9364 -87.4408 279° West 322 371 36,000  Level Houston Center
07:15AM 30.9528 -87.5458 280° West 327 376 36,000  Level Houston Center
07:16AM 30.9675 -87.6511 279° West 331 381 36,000  Level Houston Center
07:17AM 30.9831 -87.7683 279° West 333 383 36,000  Level Houston Center
07:18AM 30.9983 -87.8756 279° West 335 386 36,000  Level Houston Center
07:19AM 31.0131 -87.9822 279° West 337 388 36,000  Level Houston Center
07:20AM 31.0278 -88.0897 279° West 337 388 36,000  Level Houston Center
07:21AM 31.0400 -88.1972 278° West 337 388 36,000 -60 Level Houston Center
07:22AM 31.0556 -88.3053 280° West 338 389 35,900  Descending Houston Center
07:23AM 31.0625 -88.4136 274° West 338 389 36,000  Climbing Houston Center
07:24AM 31.0686 -88.5214 274° West 335 386 35,900  Descending Houston Center
07:25AM 31.0753 -88.6297 274° West 331 381 36,000  Climbing Houston Center
07:26AM 31.0817 -88.7381 274° West 335 386 36,000  Level Houston Center
07:27AM 31.0886 -88.8458 274° West 334 384 36,000  Level Houston Center
07:28AM 31.0956 -88.9731 274° West 335 386 36,000  Level Houston Center
07:29AM 31.1039 -89.0822 275° West 338 389 36,000  Level Houston Center
07:30AM 31.1086 -89.1903 273° West 338 389 36,000  Level Houston Center
07:31AM 31.1161 -89.3008 275° West 341 392 36,000  Level Houston Center
07:32AM 31.1225 -89.4114 274° West 341 392 36,000  Level Houston Center
07:33AM 31.1289 -89.5225 274° West 344 396 36,000  Level Houston Center
07:34AM 31.1353 -89.6342 274° West 345 397 36,000  Level Houston Center
07:35AM 31.1406 -89.7472 273° West 348 400 36,000  Level Houston Center
07:36AM 31.1467 -89.8594 274° West 348 400 36,000  Level Houston Center
07:37AM 31.1528 -89.9717 274° West 348 400 36,000  Level Houston Center
07:38AM 31.1583 -90.0836 273° West 345 397 36,000  Level Houston Center
07:39AM 31.1639 -90.1961 273° West 347 399 36,000  Level Houston Center
07:40AM 31.1694 -90.3081 273° West 346 398 36,000  Level Houston Center
07:41AM 31.1761 -90.4211 274° West 348 400 36,000  Level Houston Center
07:42AM 31.1806 -90.5344 273° West 349 402 36,000  Level Houston Center
07:43AM 31.1858 -90.6486 273° West 352 405 36,000  Level Houston Center
07:44AM 31.1939 -90.7853 274° West 351 404 36,000  Level Houston Center
07:45AM 31.1975 -90.9011 272° West 354 407 36,000  Level Houston Center
07:46AM 31.2036 -91.0164 274° West 356 410 36,000  Level Houston Center
07:47AM 31.2086 -91.1317 273° West 354 407 36,000  Level Houston Center
07:48AM 31.2136 -91.2472 273° West 357 411 36,000  Level Houston Center
07:49AM 31.2175 -91.3642 272° West 360 414 36,000  Level Houston Center
07:50AM 31.2214 -91.4794 272° West 359 413 36,000  Level Houston Center
07:51AM 31.2292 -91.5972 274° West 361 415 36,000  Level Houston Center
07:52AM 31.2625 -91.7122 289° West 369 425 36,000  Level Houston Center
07:53AM 31.2914 -91.8275 286° West 372 428 36,000  Level Houston Center
07:54AM 31.3181 -91.9436 285° West 370 426 36,000  Level Houston Center
07:55AM 31.3456 -92.0600 285° West 373 429 36,000  Level Houston Center
07:56AM 31.3708 -92.1758 284° West 370 426 36,000  Level Houston Center
07:57AM 31.3997 -92.2931 286° West 373 429 36,000  Level Houston Center
07:58AM 31.4275 -92.4106 286° West 375 432 36,000  Level Houston Center
07:59AM 31.4558 -92.5278 286° West 377 434 36,000  Level Houston Center
08:00AM 31.4889 -92.6706 285° West 379 436 36,000 -60 Level Houston Center
08:01AM 31.5164 -92.7881 285° West 376 433 35,900  Descending Houston Center
08:03AM 31.5433 -92.9064 285° West 376 433 36,000  Climbing Houston Center
08:04AM 31.5697 -93.0250 285° West 378 435 36,000  Level Houston Center
08:05AM 31.5975 -93.1433 285° West 379 436 36,000  Level Houston Center
08:06AM 31.6239 -93.2611 285° West 376 433 36,000  Level Houston Center
08:07AM 31.6489 -93.3750 284° West 378 435 36,000  Level Houston Center
08:08AM 31.6728 -93.4936 283° West 376 433 36,000  Level Houston Center
08:08AM 31.6922 -93.6022 282° West 376 433 36,000  Level Fort Worth Center
08:09AM 31.7167 -93.7208 284° West 376 433 36,000  Level Fort Worth Center
08:10AM 31.7411 -93.8397 284° West 376 433 36,000  Level Fort Worth Center
08:11AM 31.7633 -93.9608 282° West 371 427 36,000  Level Fort Worth Center
08:12AM 31.7917 -94.0869 285° West 371 427 36,000  Level Fort Worth Center
08:13AM 31.8136 -94.2058 282° West 366 421 36,000  Level Fort Worth Center
08:14AM 31.8375 -94.3275 283° West 372 428 36,000  Level Fort Worth Center
08:15AM 31.8592 -94.4464 282° West 372 428 36,000  Level Fort Worth Center
08:16AM 31.8825 -94.5606 284° West 372 428 36,000 -420 Level Fort Worth Center
08:17AM 31.9122 -94.6722 287° West 372 428 35,200 -540 Descending Fort Worth Center
08:18AM 31.9417 -94.7842 287° West 367 422 35,000 -120 Descending Fort Worth Center
08:19AM 31.9753 -94.9006 289° West 362 417 35,000  Level Fort Worth Center
08:20AM 32.0069 -95.0175 288° West 368 423 35,000  Level Fort Worth Center
08:21AM 32.0361 -95.1319 287° West 368 423 35,000 -300 Level Fort Worth Center
08:22AM 32.0675 -95.2461 288° West 368 423 34,500 -1,440 Descending Fort Worth Center
08:23AM 32.0964 -95.3583 287° West 368 423 32,200 -2,160 Descending Fort Worth Center
08:24AM 32.1275 -95.4778 287° West 368 423 30,200 -2,040 Descending Fort Worth Center
08:25AM 32.1606 -95.5950 288° West 373 429 28,200 -2,040 Descending Fort Worth Center
08:26AM 32.1892 -95.7025 287° West 384 442 26,200 -2,040 Descending Fort Worth Center
08:27AM 32.2222 -95.8392 286° West 390 449 24,200 -2,100 Descending Fort Worth Center
08:28AM 32.2572 -95.9614 289° West 397 457 22,000 -2,100 Descending Fort Worth Center
08:29AM 32.2897 -96.0814 288° West 391 450 20,100 -1,860 Descending Fort Worth Center
08:30AM 32.3139 -96.1867 285° West 382 440 18,300 -1,920 Descending Fort Worth Center
08:31AM 32.3464 -96.3117 287° West 371 427 16,300 -1,980 Descending Fort Worth Center
08:32AM 32.3700 -96.4050 287° West 353 406 14,400 -2,100 Descending Fort Worth Center
08:33AM 32.4250 -96.5053 303° West 332 382 12,200 -1,740 Descending Fort Worth Center
08:34AM 32.4861 -96.5711 318° Northwest 327 376 11,000 -600 Descending Fort Worth Center
08:35AM 32.5514 -96.6519 314° West 317 365 11,000  Level Fort Worth Center
08:36AM 32.6019 -96.7131 314° West 301 346 11,000  Level Fort Worth Center
08:37AM 32.6628 -96.7867 314° West 294 338 11,000  Level Fort Worth Center
08:38AM 32.7153 -96.8481 315° West 294 338 11,000  Level Fort Worth Center
08:39AM 32.7667 -96.9000 320° Northwest 245 282 11,000 -420 Level Dallas / Fort Worth TRACON
08:40AM 32.8333 -96.9000 360° North 241 277 10,200 -1,440 Descending Dallas / Fort Worth TRACON
08:41AM 32.9000 -96.9000 360° North 243 280 8,300 -2,160 Descending Dallas / Fort Worth TRACON
08:42AM 32.9667 -96.9000 360° North 230 265 5,700 -2,340 Descending Dallas / Fort Worth TRACON
08:43AM 33.0333 -96.9500 328° Northwest 243 280 3,200 -1,620 Descending Dallas / Fort Worth TRACON
08:45AM 33.0167 -97.0167 253° West 200 230 2,300 -840 Descending Dallas / Fort Worth TRACON